sensor_id;sensor_type;location;lat;lon;timestamp;pressure;altitude;pressure_sealevel;temperature;humidity
17635;BME280;8936;49.010;12.120;2023-02-12T00:00:08;99791.31;;;4.36;100.00
17635;BME280;8936;49.010;12.120;2023-02-12T00:02:35;99790.03;;;4.32;100.00
17635;BME280;8936;49.010;12.120;2023-02-12T00:05:01;99781.09;;;4.33;100.00
17635;BME280;8936;49.010;12.120;2023-02-12T00:07:28;99770.16;;;4.36;100.00
17635;BME280;8936;49.010;12.120;2023-02-12T00:09:55;99766.78;;;4.43;100.00
17635;BME280;8936;49.010;12.120;2023-02-12T00:12:21;99780.03;;;4.43;100.00
17635;BME280;8936;49.010;12.120;2023-02-12T00:14:49;99772.09;;;4.43;100.00
17635;BME280;8936;49.010;12.120;2023-02-12T00:17:15;99758.50;;;4.46;100.00
17635;BME280;8936;49.010;12.120;2023-02-12T00:19:41;99756.53;;;4.48;100.00
17635;BME280;8936;49.010;12.120;2023-02-12T00:22:08;99752.22;;;4.47;100.00
17635;BME280;8936;49.010;12.120;2023-02-12T00:24:34;99761.69;;;4.41;100.00
17635;BME280;8936;49.010;12.120;2023-02-12T00:27:00;99755.19;;;4.29;100.00
17635;BME280;8936;49.010;12.120;2023-02-12T00:29:27;99765.13;;;4.27;100.00
17635;BME280;8936;49.010;12.120;2023-02-12T00:31:54;99769.94;;;4.23;100.00
17635;BME280;8936;49.010;12.120;2023-02-12T00:34:21;99770.31;;;4.20;100.00
17635;BME280;8936;49.010;12.120;2023-02-12T00:36:47;99769.47;;;4.20;100.00
17635;BME280;8936;49.010;12.120;2023-02-12T00:39:13;99762.84;;;4.24;100.00
17635;BME280;8936;49.010;12.120;2023-02-12T00:41:40;99765.78;;;4.29;100.00
17635;BME280;8936;49.010;12.120;2023-02-12T00:44:06;99775.34;;;4.30;100.00
17635;BME280;8936;49.010;12.120;2023-02-12T00:46:32;99779.00;;;4.29;100.00
17635;BME280;8936;49.010;12.120;2023-02-12T00:49:00;99785.63;;;4.25;100.00
17635;BME280;8936;49.010;12.120;2023-02-12T00:51:26;99785.81;;;4.23;100.00
17635;BME280;8936;49.010;12.120;2023-02-12T00:53:53;99795.03;;;4.27;100.00
17635;BME280;8936;49.010;12.120;2023-02-12T00:56:19;99786.09;;;4.28;100.00
17635;BME280;8936;49.010;12.120;2023-02-12T00:58:45;99797.31;;;4.30;100.00
17635;BME280;8936;49.010;12.120;2023-02-12T01:01:12;99791.03;;;4.31;100.00
17635;BME280;8936;49.010;12.120;2023-02-12T01:03:38;99784.09;;;4.30;100.00
17635;BME280;8936;49.010;12.120;2023-02-12T01:06:06;99791.66;;;4.33;100.00
17635;BME280;8936;49.010;12.120;2023-02-12T01:08:32;99799.81;;;4.32;100.00
17635;BME280;8936;49.010;12.120;2023-02-12T01:10:59;99809.06;;;4.28;100.00
17635;BME280;8936;49.010;12.120;2023-02-12T01:13:26;99812.91;;;4.25;100.00
17635;BME280;8936;49.010;12.120;2023-02-12T01:16:00;99811.91;;;4.26;100.00
17635;BME280;8936;49.010;12.120;2023-02-12T01:18:27;99816.50;;;4.32;100.00
17635;BME280;8936;49.010;12.120;2023-02-12T01:20:53;99811.69;;;4.36;100.00
17635;BME280;8936;49.010;12.120;2023-02-12T01:23:21;99811.13;;;4.41;100.00
17635;BME280;8936;49.010;12.120;2023-02-12T01:25:47;99807.78;;;4.47;100.00
17635;BME280;8936;49.010;12.120;2023-02-12T01:28:14;99807.06;;;4.53;100.00
17635;BME280;8936;49.010;12.120;2023-02-12T01:30:40;99800.59;;;4.55;100.00
17635;BME280;8936;49.010;12.120;2023-02-12T01:33:06;99809.00;;;4.59;100.00
17635;BME280;8936;49.010;12.120;2023-02-12T01:35:32;99797.44;;;4.60;100.00
17635;BME280;8936;49.010;12.120;2023-02-12T01:37:59;99801.72;;;4.61;100.00
17635;BME280;8936;49.010;12.120;2023-02-12T01:40:26;99809.47;;;4.62;100.00
17635;BME280;8936;49.010;12.120;2023-02-12T01:42:53;99806.34;;;4.59;100.00
17635;BME280;8936;49.010;12.120;2023-02-12T01:45:33;99796.59;;;4.59;100.00
17635;BME280;8936;49.010;12.120;2023-02-12T01:48:05;99805.72;;;4.57;100.00
17635;BME280;8936;49.010;12.120;2023-02-12T01:50:32;99809.91;;;4.51;100.00
17635;BME280;8936;49.010;12.120;2023-02-12T01:52:58;99808.44;;;4.49;100.00
17635;BME280;8936;49.010;12.120;2023-02-12T01:55:26;99802.31;;;4.48;100.00
17635;BME280;8936;49.010;12.120;2023-02-12T01:57:54;99795.03;;;4.50;100.00
17635;BME280;8936;49.010;12.120;2023-02-12T02:00:21;99802.97;;;4.50;100.00
17635;BME280;8936;49.010;12.120;2023-02-12T02:02:49;99808.13;;;4.44;100.00
17635;BME280;8936;49.010;12.120;2023-02-12T02:05:17;99810.50;;;4.39;100.00
17635;BME280;8936;49.010;12.120;2023-02-12T02:07:45;99813.19;;;4.30;100.00
17635;BME280;8936;49.010;12.120;2023-02-12T02:10:12;99816.03;;;4.29;100.00
17635;BME280;8936;49.010;12.120;2023-02-12T02:12:39;99818.66;;;4.29;100.00
17635;BME280;8936;49.010;12.120;2023-02-12T02:15:25;99820.84;;;4.25;100.00
17635;BME280;8936;49.010;12.120;2023-02-12T02:17:55;99819.19;;;4.24;100.00
17635;BME280;8936;49.010;12.120;2023-02-12T02:20:39;99827.78;;;4.26;100.00
17635;BME280;8936;49.010;12.120;2023-02-12T02:23:11;99816.78;;;4.38;100.00
17635;BME280;8936;49.010;12.120;2023-02-12T02:28:32;99824.00;;;4.44;100.00
17635;BME280;8936;49.010;12.120;2023-02-12T02:31:08;99813.06;;;4.47;100.00
17635;BME280;8936;49.010;12.120;2023-02-12T02:33:40;99815.00;;;4.53;100.00
17635;BME280;8936;49.010;12.120;2023-02-12T02:36:15;99815.84;;;4.53;100.00
17635;BME280;8936;49.010;12.120;2023-02-12T02:38:48;99811.19;;;4.55;100.00
17635;BME280;8936;49.010;12.120;2023-02-12T02:41:16;99808.38;;;4.57;100.00
17635;BME280;8936;49.010;12.120;2023-02-12T02:43:45;99816.94;;;4.59;100.00
17635;BME280;8936;49.010;12.120;2023-02-12T02:46:15;99813.31;;;4.60;100.00
17635;BME280;8936;49.010;12.120;2023-02-12T02:48:43;99814.97;;;4.61;100.00
17635;BME280;8936;49.010;12.120;2023-02-12T02:51:12;99818.41;;;4.61;100.00
17635;BME280;8936;49.010;12.120;2023-02-12T02:53:41;99822.81;;;4.69;100.00
17635;BME280;8936;49.010;12.120;2023-02-12T02:56:10;99814.53;;;4.72;100.00
17635;BME280;8936;49.010;12.120;2023-02-12T02:58:40;99807.69;;;4.77;100.00
17635;BME280;8936;49.010;12.120;2023-02-12T03:01:08;99818.47;;;4.76;100.00
17635;BME280;8936;49.010;12.120;2023-02-12T03:03:39;99809.06;;;4.73;100.00
17635;BME280;8936;49.010;12.120;2023-02-12T03:06:08;99806.22;;;4.75;100.00
17635;BME280;8936;49.010;12.120;2023-02-12T03:08:36;99806.69;;;4.78;100.00
17635;BME280;8936;49.010;12.120;2023-02-12T03:11:06;99808.78;;;4.83;100.00
17635;BME280;8936;49.010;12.120;2023-02-12T03:13:35;99810.78;;;4.81;100.00
17635;BME280;8936;49.010;12.120;2023-02-12T03:16:03;99810.78;;;4.81;100.00
17635;BME280;8936;49.010;12.120;2023-02-12T03:18:33;99812.44;;;4.82;100.00
17635;BME280;8936;49.010;12.120;2023-02-12T03:21:04;99825.69;;;4.82;100.00
17635;BME280;8936;49.010;12.120;2023-02-12T03:23:36;99831.84;;;4.74;100.00
17635;BME280;8936;49.010;12.120;2023-02-12T03:26:04;99827.16;;;4.62;100.00
17635;BME280;8936;49.010;12.120;2023-02-12T03:28:32;99832.19;;;4.57;100.00
17635;BME280;8936;49.010;12.120;2023-02-12T03:31:02;99818.94;;;4.57;100.00
17635;BME280;8936;49.010;12.120;2023-02-12T03:33:34;99823.06;;;4.59;100.00
17635;BME280;8936;49.010;12.120;2023-02-12T03:36:07;99825.97;;;4.64;100.00
17635;BME280;8936;49.010;12.120;2023-02-12T03:38:39;99836.22;;;4.67;100.00
17635;BME280;8936;49.010;12.120;2023-02-12T03:41:08;99840.34;;;4.70;100.00
17635;BME280;8936;49.010;12.120;2023-02-12T03:43:38;99843.63;;;4.72;100.00
17635;BME280;8936;49.010;12.120;2023-02-12T03:46:11;99831.34;;;4.79;100.00
17635;BME280;8936;49.010;12.120;2023-02-12T03:48:41;99835.09;;;4.84;100.00
17635;BME280;8936;49.010;12.120;2023-02-12T03:51:12;99843.50;;;4.88;100.00
17635;BME280;8936;49.010;12.120;2023-02-12T03:53:41;99853.91;;;4.89;100.00
17635;BME280;8936;49.010;12.120;2023-02-12T03:56:09;99844.13;;;4.90;100.00
17635;BME280;8936;49.010;12.120;2023-02-12T03:58:37;99838.84;;;4.90;100.00
17635;BME280;8936;49.010;12.120;2023-02-12T04:01:04;99847.59;;;4.90;100.00
17635;BME280;8936;49.010;12.120;2023-02-12T04:03:31;99849.91;;;4.94;100.00
17635;BME280;8936;49.010;12.120;2023-02-12T04:05:58;99846.25;;;4.95;100.00
17635;BME280;8936;49.010;12.120;2023-02-12T04:08:25;99849.72;;;4.95;100.00
17635;BME280;8936;49.010;12.120;2023-02-12T04:10:55;99853.72;;;4.91;100.00
17635;BME280;8936;49.010;12.120;2023-02-12T04:13:27;99851.25;;;4.89;100.00
17635;BME280;8936;49.010;12.120;2023-02-12T04:16:02;99858.56;;;4.87;100.00
17635;BME280;8936;49.010;12.120;2023-02-12T04:18:33;99863.84;;;4.87;100.00
17635;BME280;8936;49.010;12.120;2023-02-12T04:21:05;99857.72;;;4.87;100.00
17635;BME280;8936;49.010;12.120;2023-02-12T04:23:39;99868.31;;;4.87;100.00
17635;BME280;8936;49.010;12.120;2023-02-12T04:26:08;99866.50;;;4.87;100.00
17635;BME280;8936;49.010;12.120;2023-02-12T04:28:38;99854.56;;;4.92;100.00
17635;BME280;8936;49.010;12.120;2023-02-12T04:31:10;99862.59;;;4.98;100.00
17635;BME280;8936;49.010;12.120;2023-02-12T04:33:39;99861.06;;;5.04;100.00
17635;BME280;8936;49.010;12.120;2023-02-12T04:36:10;99868.34;;;5.02;100.00
17635;BME280;8936;49.010;12.120;2023-02-12T04:38:40;99870.19;;;5.01;100.00
17635;BME280;8936;49.010;12.120;2023-02-12T04:41:09;99871.53;;;4.97;100.00
17635;BME280;8936;49.010;12.120;2023-02-12T04:43:36;99876.38;;;4.94;100.00
17635;BME280;8936;49.010;12.120;2023-02-12T04:46:03;99868.44;;;4.94;100.00
17635;BME280;8936;49.010;12.120;2023-02-12T04:48:29;99873.72;;;4.94;100.00
17635;BME280;8936;49.010;12.120;2023-02-12T04:50:55;99869.25;;;4.94;100.00
17635;BME280;8936;49.010;12.120;2023-02-12T04:53:22;99874.34;;;4.96;100.00
17635;BME280;8936;49.010;12.120;2023-02-12T04:55:49;99883.44;;;5.01;100.00
17635;BME280;8936;49.010;12.120;2023-02-12T04:58:16;99886.09;;;5.01;100.00
17635;BME280;8936;49.010;12.120;2023-02-12T05:00:43;99884.78;;;4.97;100.00
17635;BME280;8936;49.010;12.120;2023-02-12T05:03:09;99882.25;;;4.81;100.00
17635;BME280;8936;49.010;12.120;2023-02-12T05:05:35;99888.38;;;4.59;100.00
17635;BME280;8936;49.010;12.120;2023-02-12T05:08:02;99885.97;;;4.49;100.00
17635;BME280;8936;49.010;12.120;2023-02-12T05:10:28;99892.56;;;4.53;100.00
17635;BME280;8936;49.010;12.120;2023-02-12T05:12:55;99890.03;;;4.60;100.00
17635;BME280;8936;49.010;12.120;2023-02-12T05:15:22;99889.56;;;4.56;100.00
17635;BME280;8936;49.010;12.120;2023-02-12T05:17:48;99897.50;;;4.56;100.00
17635;BME280;8936;49.010;12.120;2023-02-12T05:20:15;99896.16;;;4.60;100.00
17635;BME280;8936;49.010;12.120;2023-02-12T05:22:41;99894.63;;;4.66;100.00
17635;BME280;8936;49.010;12.120;2023-02-12T05:25:07;99888.47;;;4.73;100.00
17635;BME280;8936;49.010;12.120;2023-02-12T05:27:34;99886.56;;;4.82;100.00
17635;BME280;8936;49.010;12.120;2023-02-12T05:30:02;99888.31;;;4.89;100.00
17635;BME280;8936;49.010;12.120;2023-02-12T05:32:29;99901.31;;;4.99;100.00
17635;BME280;8936;49.010;12.120;2023-02-12T05:34:55;99897.94;;;5.05;100.00
17635;BME280;8936;49.010;12.120;2023-02-12T05:37:22;99898.59;;;5.07;100.00
17635;BME280;8936;49.010;12.120;2023-02-12T05:39:48;99898.78;;;5.06;100.00
17635;BME280;8936;49.010;12.120;2023-02-12T05:42:15;99899.03;;;5.11;100.00
17635;BME280;8936;49.010;12.120;2023-02-12T05:44:41;99901.53;;;5.12;100.00
17635;BME280;8936;49.010;12.120;2023-02-12T05:47:09;99900.69;;;5.12;100.00
17635;BME280;8936;49.010;12.120;2023-02-12T05:49:35;99898.53;;;5.15;100.00
17635;BME280;8936;49.010;12.120;2023-02-12T05:52:01;99894.88;;;5.16;100.00
17635;BME280;8936;49.010;12.120;2023-02-12T05:54:28;99900.69;;;5.12;100.00
17635;BME280;8936;49.010;12.120;2023-02-12T05:56:54;99897.31;;;5.03;100.00
17635;BME280;8936;49.010;12.120;2023-02-12T05:59:21;99900.72;;;4.89;100.00
17635;BME280;8936;49.010;12.120;2023-02-12T06:01:48;99904.03;;;4.91;100.00
17635;BME280;8936;49.010;12.120;2023-02-12T06:04:17;99907.63;;;4.75;100.00
17635;BME280;8936;49.010;12.120;2023-02-12T06:06:44;99901.25;;;4.62;100.00
17635;BME280;8936;49.010;12.120;2023-02-12T06:09:11;99905.84;;;4.68;100.00
17635;BME280;8936;49.010;12.120;2023-02-12T06:11:38;99908.81;;;4.73;100.00
17635;BME280;8936;49.010;12.120;2023-02-12T06:14:05;99920.47;;;4.64;100.00
17635;BME280;8936;49.010;12.120;2023-02-12T06:16:31;99922.22;;;4.71;100.00
17635;BME280;8936;49.010;12.120;2023-02-12T06:18:59;99922.81;;;4.81;100.00
17635;BME280;8936;49.010;12.120;2023-02-12T06:21:28;99917.28;;;4.91;100.00
17635;BME280;8936;49.010;12.120;2023-02-12T06:23:55;99928.81;;;4.98;100.00
17635;BME280;8936;49.010;12.120;2023-02-12T06:26:21;99930.66;;;4.89;100.00
17635;BME280;8936;49.010;12.120;2023-02-12T06:28:48;99933.50;;;4.88;100.00
17635;BME280;8936;49.010;12.120;2023-02-12T06:31:19;99944.22;;;4.72;100.00
17635;BME280;8936;49.010;12.120;2023-02-12T06:33:46;99945.78;;;4.58;100.00
17635;BME280;8936;49.010;12.120;2023-02-12T06:36:12;99948.06;;;4.61;100.00
17635;BME280;8936;49.010;12.120;2023-02-12T06:38:40;99936.16;;;4.65;100.00
17635;BME280;8936;49.010;12.120;2023-02-12T06:41:06;99939.97;;;4.63;100.00
17635;BME280;8936;49.010;12.120;2023-02-12T06:43:32;99937.97;;;4.65;100.00
17635;BME280;8936;49.010;12.120;2023-02-12T06:45:59;99952.22;;;4.64;100.00
17635;BME280;8936;49.010;12.120;2023-02-12T06:48:26;99953.38;;;4.61;100.00
17635;BME280;8936;49.010;12.120;2023-02-12T06:50:52;99958.91;;;4.74;100.00
17635;BME280;8936;49.010;12.120;2023-02-12T06:53:18;99951.94;;;4.81;100.00
17635;BME280;8936;49.010;12.120;2023-02-12T06:55:46;99953.75;;;4.81;100.00
17635;BME280;8936;49.010;12.120;2023-02-12T06:58:12;99944.56;;;4.69;100.00
17635;BME280;8936;49.010;12.120;2023-02-12T07:00:39;99956.56;;;4.57;100.00
17635;BME280;8936;49.010;12.120;2023-02-12T07:03:05;99946.78;;;4.57;100.00
17635;BME280;8936;49.010;12.120;2023-02-12T07:05:31;99954.53;;;4.59;100.00
17635;BME280;8936;49.010;12.120;2023-02-12T07:08:01;99953.28;;;4.55;100.00
17635;BME280;8936;49.010;12.120;2023-02-12T07:10:28;99957.88;;;4.53;100.00
17635;BME280;8936;49.010;12.120;2023-02-12T07:12:55;99949.56;;;4.64;100.00
17635;BME280;8936;49.010;12.120;2023-02-12T07:15:22;99956.09;;;4.76;100.00
17635;BME280;8936;49.010;12.120;2023-02-12T07:17:48;99959.88;;;4.81;100.00
17635;BME280;8936;49.010;12.120;2023-02-12T07:20:14;99962.44;;;4.89;100.00
17635;BME280;8936;49.010;12.120;2023-02-12T07:22:41;99960.47;;;4.92;100.00
17635;BME280;8936;49.010;12.120;2023-02-12T07:25:07;99968.09;;;4.86;100.00
17635;BME280;8936;49.010;12.120;2023-02-12T07:27:35;99967.41;;;4.70;100.00
17635;BME280;8936;49.010;12.120;2023-02-12T07:30:03;99972.69;;;4.70;100.00
17635;BME280;8936;49.010;12.120;2023-02-12T07:32:30;99971.28;;;4.82;100.00
17635;BME280;8936;49.010;12.120;2023-02-12T07:34:57;99965.09;;;4.89;100.00
17635;BME280;8936;49.010;12.120;2023-02-12T07:37:23;99964.84;;;4.99;100.00
17635;BME280;8936;49.010;12.120;2023-02-12T07:39:50;99964.50;;;5.02;100.00
17635;BME280;8936;49.010;12.120;2023-02-12T07:42:16;99958.56;;;5.00;100.00
17635;BME280;8936;49.010;12.120;2023-02-12T07:44:43;99967.59;;;4.91;100.00
17635;BME280;8936;49.010;12.120;2023-02-12T07:47:10;99967.38;;;4.93;100.00
17635;BME280;8936;49.010;12.120;2023-02-12T07:49:37;99968.53;;;4.98;100.00
17635;BME280;8936;49.010;12.120;2023-02-12T07:52:03;99968.53;;;4.98;100.00
17635;BME280;8936;49.010;12.120;2023-02-12T07:54:29;99963.88;;;5.00;100.00
17635;BME280;8936;49.010;12.120;2023-02-12T07:56:56;99968.34;;;5.00;100.00
17635;BME280;8936;49.010;12.120;2023-02-12T07:59:22;99969.16;;;5.00;100.00
17635;BME280;8936;49.010;12.120;2023-02-12T08:01:49;99967.28;;;5.09;100.00
17635;BME280;8936;49.010;12.120;2023-02-12T08:04:17;99961.09;;;5.16;100.00
17635;BME280;8936;49.010;12.120;2023-02-12T08:06:45;99953.91;;;5.25;100.00
17635;BME280;8936;49.010;12.120;2023-02-12T08:09:12;99952.34;;;5.30;100.00
17635;BME280;8936;49.010;12.120;2023-02-12T08:11:39;99957.75;;;5.37;100.00
17635;BME280;8936;49.010;12.120;2023-02-12T08:14:06;99953.81;;;5.33;100.00
17635;BME280;8936;49.010;12.120;2023-02-12T08:16:34;99961.50;;;5.28;100.00
17635;BME280;8936;49.010;12.120;2023-02-12T08:19:01;99963.88;;;5.23;100.00
17635;BME280;8936;49.010;12.120;2023-02-12T08:21:28;99970.44;;;5.27;100.00
17635;BME280;8936;49.010;12.120;2023-02-12T08:23:55;99967.97;;;5.25;100.00
17635;BME280;8936;49.010;12.120;2023-02-12T08:26:23;99969.16;;;5.23;100.00
17635;BME280;8936;49.010;12.120;2023-02-12T08:28:51;99983.28;;;5.15;100.00
17635;BME280;8936;49.010;12.120;2023-02-12T08:31:18;99982.28;;;5.16;100.00
17635;BME280;8936;49.010;12.120;2023-02-12T08:33:46;99981.47;;;5.16;100.00
17635;BME280;8936;49.010;12.120;2023-02-12T08:36:13;99992.22;;;5.14;100.00
17635;BME280;8936;49.010;12.120;2023-02-12T08:38:42;99984.09;;;5.16;100.00
17635;BME280;8936;49.010;12.120;2023-02-12T08:41:09;99984.75;;;5.18;100.00
17635;BME280;8936;49.010;12.120;2023-02-12T08:43:36;99985.84;;;5.23;100.00
17635;BME280;8936;49.010;12.120;2023-02-12T08:46:03;99981.38;;;5.24;100.00
17635;BME280;8936;49.010;12.120;2023-02-12T08:48:30;99985.69;;;5.25;100.00
17635;BME280;8936;49.010;12.120;2023-02-12T08:51:02;99984.69;;;5.26;100.00
17635;BME280;8936;49.010;12.120;2023-02-12T08:53:28;99988.34;;;5.25;100.00
17635;BME280;8936;49.010;12.120;2023-02-12T08:55:56;99988.81;;;5.28;100.00
17635;BME280;8936;49.010;12.120;2023-02-12T08:58:22;99984.16;;;5.30;100.00
17635;BME280;8936;49.010;12.120;2023-02-12T09:00:48;99980.16;;;5.34;100.00
17635;BME280;8936;49.010;12.120;2023-02-12T09:03:15;99979.94;;;5.36;100.00
17635;BME280;8936;49.010;12.120;2023-02-12T09:05:41;99977.78;;;5.39;100.00
17635;BME280;8936;49.010;12.120;2023-02-12T09:08:07;99982.72;;;5.42;100.00
17635;BME280;8936;49.010;12.120;2023-02-12T09:10:37;99982.91;;;5.41;100.00
17635;BME280;8936;49.010;12.120;2023-02-12T09:13:05;99983.19;;;5.46;100.00
17635;BME280;8936;49.010;12.120;2023-02-12T09:15:34;99988.59;;;5.53;100.00
17635;BME280;8936;49.010;12.120;2023-02-12T09:18:01;99985.38;;;5.57;100.00
17635;BME280;8936;49.010;12.120;2023-02-12T09:20:28;99989.69;;;5.58;100.00
17635;BME280;8936;49.010;12.120;2023-02-12T09:22:55;100000.66;;;5.55;100.00
17635;BME280;8936;49.010;12.120;2023-02-12T09:25:21;99999.00;;;5.54;100.00
17635;BME280;8936;49.010;12.120;2023-02-12T09:27:47;99994.38;;;5.56;100.00
17635;BME280;8936;49.010;12.120;2023-02-12T09:30:15;99988.88;;;5.58;100.00
17635;BME280;8936;49.010;12.120;2023-02-12T09:32:42;99994.81;;;5.60;100.00
17635;BME280;8936;49.010;12.120;2023-02-12T09:35:08;100003.88;;;5.65;100.00
17635;BME280;8936;49.010;12.120;2023-02-12T09:37:36;100001.34;;;5.72;100.00
17635;BME280;8936;49.010;12.120;2023-02-12T09:40:03;99995.84;;;5.73;100.00
17635;BME280;8936;49.010;12.120;2023-02-12T09:42:31;100004.44;;;5.75;100.00
17635;BME280;8936;49.010;12.120;2023-02-12T09:45:06;100008.19;;;5.81;100.00
17635;BME280;8936;49.010;12.120;2023-02-12T09:47:35;100008.13;;;5.89;100.00
17635;BME280;8936;49.010;12.120;2023-02-12T09:50:11;99999.44;;;5.95;100.00
17635;BME280;8936;49.010;12.120;2023-02-12T09:52:43;100007.03;;;5.98;100.00
17635;BME280;8936;49.010;12.120;2023-02-12T09:55:10;100006.69;;;6.01;100.00
17635;BME280;8936;49.010;12.120;2023-02-12T09:57:39;100002.41;;;6.00;100.00
17635;BME280;8936;49.010;12.120;2023-02-12T10:00:08;100001.47;;;5.93;100.00
17635;BME280;8936;49.010;12.120;2023-02-12T10:02:36;99996.16;;;6.08;100.00
17635;BME280;8936;49.010;12.120;2023-02-12T10:05:03;99995.25;;;6.15;100.00
17635;BME280;8936;49.010;12.120;2023-02-12T10:07:33;100002.66;;;6.20;100.00
17635;BME280;8936;49.010;12.120;2023-02-12T10:10:14;99997.63;;;6.25;100.00
17635;BME280;8936;49.010;12.120;2023-02-12T10:12:45;99995.34;;;6.22;100.00
17635;BME280;8936;49.010;12.120;2023-02-12T10:15:16;99996.81;;;6.24;100.00
17635;BME280;8936;49.010;12.120;2023-02-12T10:17:46;100005.59;;;6.25;100.00
17635;BME280;8936;49.010;12.120;2023-02-12T10:20:21;100008.41;;;6.23;100.00
17635;BME280;8936;49.010;12.120;2023-02-12T10:22:57;100002.50;;;6.21;100.00
17635;BME280;8936;49.010;12.120;2023-02-12T10:25:28;100005.78;;;6.23;100.00
17635;BME280;8936;49.010;12.120;2023-02-12T10:27:56;100005.41;;;6.26;100.00
17635;BME280;8936;49.010;12.120;2023-02-12T10:30:26;100005.69;;;6.17;100.00
17635;BME280;8936;49.010;12.120;2023-02-12T10:32:59;99999.03;;;6.06;100.00
17635;BME280;8936;49.010;12.120;2023-02-12T10:35:28;100003.13;;;6.23;100.00
17635;BME280;8936;49.010;12.120;2023-02-12T10:37:55;100004.41;;;6.27;100.00
17635;BME280;8936;49.010;12.120;2023-02-12T10:40:24;100006.59;;;6.24;100.00
17635;BME280;8936;49.010;12.120;2023-02-12T10:42:52;100001.19;;;6.32;100.00
17635;BME280;8936;49.010;12.120;2023-02-12T10:45:28;100003.63;;;6.48;100.00
17635;BME280;8936;49.010;12.120;2023-02-12T10:48:03;100001.59;;;6.50;100.00
17635;BME280;8936;49.010;12.120;2023-02-12T10:50:32;100008.56;;;6.51;100.00
17635;BME280;8936;49.010;12.120;2023-02-12T10:53:04;100000.72;;;6.43;100.00
17635;BME280;8936;49.010;12.120;2023-02-12T10:55:31;100006.91;;;6.50;100.00
17635;BME280;8936;49.010;12.120;2023-02-12T10:57:58;99999.16;;;6.48;100.00
17635;BME280;8936;49.010;12.120;2023-02-12T11:00:26;99998.91;;;6.43;100.00
17635;BME280;8936;49.010;12.120;2023-02-12T11:02:58;99999.06;;;6.42;100.00
17635;BME280;8936;49.010;12.120;2023-02-12T11:05:27;99995.31;;;6.51;100.00
17635;BME280;8936;49.010;12.120;2023-02-12T11:07:54;99993.09;;;6.55;100.00
17635;BME280;8936;49.010;12.120;2023-02-12T11:10:24;99987.34;;;6.51;100.00
17635;BME280;8936;49.010;12.120;2023-02-12T11:12:52;99996.13;;;6.51;100.00
17635;BME280;8936;49.010;12.120;2023-02-12T11:15:19;99992.34;;;6.61;100.00
17635;BME280;8936;49.010;12.120;2023-02-12T11:17:54;99987.03;;;6.61;100.00
17635;BME280;8936;49.010;12.120;2023-02-12T11:20:22;99980.72;;;6.62;100.00
17635;BME280;8936;49.010;12.120;2023-02-12T11:22:51;99988.78;;;6.53;100.00
17635;BME280;8936;49.010;12.120;2023-02-12T11:25:18;99987.50;;;6.64;100.00
17635;BME280;8936;49.010;12.120;2023-02-12T11:27:46;99977.44;;;6.60;100.00
17635;BME280;8936;49.010;12.120;2023-02-12T11:30:23;99979.19;;;6.53;100.00
17635;BME280;8936;49.010;12.120;2023-02-12T11:32:49;99971.50;;;6.58;100.00
17635;BME280;8936;49.010;12.120;2023-02-12T11:35:17;99969.25;;;6.76;100.00
17635;BME280;8936;49.010;12.120;2023-02-12T11:37:51;99975.69;;;6.67;100.00
17635;BME280;8936;49.010;12.120;2023-02-12T11:40:19;99978.72;;;6.64;100.00
17635;BME280;8936;49.010;12.120;2023-02-12T11:42:47;99979.78;;;6.69;100.00
17635;BME280;8936;49.010;12.120;2023-02-12T11:45:15;99983.50;;;6.75;100.00
17635;BME280;8936;49.010;12.120;2023-02-12T11:47:42;99978.34;;;6.88;100.00
17635;BME280;8936;49.010;12.120;2023-02-12T11:50:14;99984.56;;;6.95;100.00
17635;BME280;8936;49.010;12.120;2023-02-12T11:52:44;99982.44;;;7.05;100.00
17635;BME280;8936;49.010;12.120;2023-02-12T11:55:20;99981.75;;;6.82;100.00
17635;BME280;8936;49.010;12.120;2023-02-12T11:57:48;99973.41;;;6.85;100.00
17635;BME280;8936;49.010;12.120;2023-02-12T12:00:15;99986.25;;;7.02;100.00
17635;BME280;8936;49.010;12.120;2023-02-12T12:02:44;99989.75;;;7.03;100.00
17635;BME280;8936;49.010;12.120;2023-02-12T12:05:14;99981.75;;;7.03;100.00
17635;BME280;8936;49.010;12.120;2023-02-12T12:07:42;99985.84;;;6.99;100.00
17635;BME280;8936;49.010;12.120;2023-02-12T12:10:11;99985.91;;;7.05;100.00
17635;BME280;8936;49.010;12.120;2023-02-12T12:12:40;99982.34;;;6.98;100.00
17635;BME280;8936;49.010;12.120;2023-02-12T12:15:10;99978.25;;;6.96;100.00
17635;BME280;8936;49.010;12.120;2023-02-12T12:17:59;99981.97;;;7.01;100.00
17635;BME280;8936;49.010;12.120;2023-02-12T12:20:48;99971.03;;;7.11;100.00
17635;BME280;8936;49.010;12.120;2023-02-12T12:23:16;99974.53;;;7.12;100.00
17635;BME280;8936;49.010;12.120;2023-02-12T12:25:45;99978.94;;;7.04;100.00
17635;BME280;8936;49.010;12.120;2023-02-12T12:28:21;99974.63;;;7.03;100.00
17635;BME280;8936;49.010;12.120;2023-02-12T12:30:56;99967.16;;;7.14;100.00
17635;BME280;8936;49.010;12.120;2023-02-12T12:33:28;99966.41;;;7.20;100.00
17635;BME280;8936;49.010;12.120;2023-02-12T12:35:59;99969.00;;;7.13;100.00
17635;BME280;8936;49.010;12.120;2023-02-12T12:38:32;99963.91;;;7.18;100.00
17635;BME280;8936;49.010;12.120;2023-02-12T12:41:06;99972.47;;;7.14;100.00
17635;BME280;8936;49.010;12.120;2023-02-12T12:43:41;99963.25;;;6.88;100.00
17635;BME280;8936;49.010;12.120;2023-02-12T12:46:29;99960.72;;;7.01;100.00
17635;BME280;8936;49.010;12.120;2023-02-12T12:49:03;99954.94;;;7.19;100.00
17635;BME280;8936;49.010;12.120;2023-02-12T12:51:39;99957.38;;;7.14;100.00
17635;BME280;8936;49.010;12.120;2023-02-12T12:54:12;99956.00;;;7.25;100.00
17635;BME280;8936;49.010;12.120;2023-02-12T12:56:55;99951.78;;;7.30;100.00
17635;BME280;8936;49.010;12.120;2023-02-12T13:02:30;99949.84;;;7.45;100.00
17635;BME280;8936;49.010;12.120;2023-02-12T13:07:50;99960.88;;;7.42;100.00
17635;BME280;8936;49.010;12.120;2023-02-12T13:10:22;99957.91;;;7.58;100.00
17635;BME280;8936;49.010;12.120;2023-02-12T13:12:55;99962.28;;;7.66;100.00
17635;BME280;8936;49.010;12.120;2023-02-12T13:15:27;99952.47;;;7.67;100.00